Time;durP1;ratioP1;P1;durP2;ratioP2;P2;SDS_P1;SDS_P2;PMS_P1;PMS_P2;Temp;Humidity;BMP_temperature;BMP_pressure;BME280_temperature;BME280_humidity;BME280_pressure;Samples;Min_cycle;Max_cycle;Signal;HPM_P1;HPM_P2
2022/04/13 00:01:19;;;;;;;2.63;1.77;;;;;;;20.92;33.84;99100.91;5135523;27;20500;-65
2022/04/13 00:03:46;;;;;;;2.45;1.50;;;;;;;20.91;33.72;99093.88;5135323;27;20071;-64
2022/04/13 00:06:13;;;;;;;2.90;1.90;;;;;;;20.92;33.73;99099.06;5153307;27;20386;-63
2022/04/13 00:08:40;;;;;;;2.75;1.77;;;;;;;20.93;33.79;99098.03;5139469;27;20552;-63
2022/04/13 00:11:05;;;;;;;2.92;1.80;;;;;;;20.95;33.61;99097.81;5145648;27;20043;-65
2022/04/13 00:13:31;;;;;;;2.85;2.00;;;;;;;20.95;33.66;99100.50;5156063;27;20054;-67
2022/04/13 00:15:56;;;;;;;2.85;1.90;;;;;;;20.95;33.50;99098.66;5156231;27;20037;-67
2022/04/13 00:18:22;;;;;;;2.15;1.88;;;;;;;20.97;33.73;99095.78;5153911;27;20500;-67
2022/04/13 00:20:48;;;;;;;2.47;1.65;;;;;;;20.97;33.57;99083.13;5138814;27;20063;-65
2022/04/13 00:23:13;;;;;;;3.28;2.13;;;;;;;20.99;33.57;99097.22;5133705;27;20079;-66
2022/04/13 00:25:41;;;;;;;2.90;1.90;;;;;;;20.98;33.46;99097.44;5124908;27;20456;-64
2022/04/13 00:28:09;;;;;;;2.20;1.92;;;;;;;20.96;33.45;99088.72;5134887;27;20054;-65
2022/04/13 00:30:35;;;;;;;2.47;1.83;;;;;;;20.94;33.48;99099.69;5134831;27;20594;-65
2022/04/13 00:33:01;;;;;;;3.80;2.10;;;;;;;20.94;33.54;99094.31;5141826;27;20054;-63
2022/04/13 00:35:27;;;;;;;3.30;1.63;;;;;;;20.92;33.26;99096.38;5151889;27;20030;-64
2022/04/13 00:37:52;;;;;;;3.30;1.88;;;;;;;20.93;33.31;99098.03;5134157;27;20509;-63
2022/04/13 00:40:18;;;;;;;2.63;1.92;;;;;;;20.91;33.56;99093.88;5135269;27;20482;-63
2022/04/13 00:42:43;;;;;;;2.10;1.60;;;;;;;20.87;33.42;99090.75;5135416;27;20076;-65
2022/04/13 00:45:09;;;;;;;4.85;2.15;;;;;;;20.79;33.45;99099.81;5151988;27;20041;-64
2022/04/13 00:47:39;;;;;;;4.45;3.15;;;;;;;20.51;33.66;99102.53;5134651;27;20035;-63
2022/04/13 00:50:06;;;;;;;3.65;2.38;;;;;;;20.22;33.89;99101.69;5134834;27;20041;-61
2022/04/13 00:52:35;;;;;;;2.40;1.90;;;;;;;19.98;34.64;99095.69;5130281;27;20535;-66
2022/04/13 00:55:02;;;;;;;2.88;2.25;;;;;;;19.79;34.73;99102.50;5134395;27;20031;-66
2022/04/13 00:57:30;;;;;;;3.97;2.20;;;;;;;19.60;34.84;99104.78;5133778;27;20031;-64
2022/04/13 00:59:57;;;;;;;3.05;2.20;;;;;;;19.54;35.12;99099.34;5134098;27;20090;-64
2022/04/13 01:02:23;;;;;;;2.50;1.73;;;;;;;19.67;34.93;99102.19;5133931;27;20050;-64
2022/04/13 01:04:50;;;;;;;7.15;1.80;;;;;;;19.79;34.84;99092.59;5150460;27;20118;-63
2022/04/13 01:07:16;;;;;;;3.25;1.80;;;;;;;19.95;34.92;99098.75;5132156;27;20512;-63
2022/04/13 01:09:41;;;;;;;2.60;1.77;;;;;;;20.05;34.92;99101.13;5133329;27;20114;-62
2022/04/13 01:12:07;;;;;;;2.20;1.70;;;;;;;20.14;34.63;99089.22;5133547;27;20788;-63
2022/04/13 01:14:34;;;;;;;2.30;1.48;;;;;;;20.20;34.84;99098.38;5133374;27;20035;-62
2022/04/13 01:17:01;;;;;;;2.22;1.70;;;;;;;20.25;35.04;99101.28;5133744;27;20035;-64
2022/04/13 01:19:27;;;;;;;2.90;2.03;;;;;;;20.29;35.02;99094.50;5133174;27;20049;-62
2022/04/13 01:21:53;;;;;;;2.03;1.75;;;;;;;20.33;34.87;99105.69;5131938;27;20502;-62
2022/04/13 01:24:21;;;;;;;4.10;1.92;;;;;;;20.34;35.00;99102.81;5113825;27;20035;-64
2022/04/13 01:26:47;;;;;;;2.08;1.27;;;;;;;20.37;35.21;99105.09;5112758;28;20039;-63
2022/04/13 01:29:13;;;;;;;1.67;1.40;;;;;;;20.35;34.92;99101.78;5126779;27;20091;-64
2022/04/13 01:31:40;;;;;;;3.05;1.65;;;;;;;20.40;35.11;99099.31;5133461;27;20447;-64
2022/04/13 01:34:07;;;;;;;1.60;1.40;;;;;;;20.41;35.12;99110.91;5133594;27;20068;-63
2022/04/13 01:36:34;;;;;;;2.38;1.90;;;;;;;20.42;34.99;99109.91;5133180;27;20071;-63
2022/04/13 01:39:00;;;;;;;3.97;1.83;;;;;;;20.40;35.33;99093.13;5131330;27;20410;-63
2022/04/13 01:41:26;;;;;;;2.17;1.63;;;;;;;20.43;35.03;99114.25;5133180;27;20043;-62
2022/04/13 01:43:51;;;;;;;1.70;1.50;;;;;;;20.42;35.04;99101.84;5133424;27;20035;-62
2022/04/13 01:46:17;;;;;;;2.80;1.83;;;;;;;20.41;34.84;99110.91;5133070;27;20079;-63
2022/04/13 01:48:42;;;;;;;2.58;2.00;;;;;;;20.41;34.85;99111.75;5132306;27;20062;-65
2022/04/13 01:51:08;;;;;;;3.65;2.05;;;;;;;20.42;34.73;99113.41;5132779;27;20050;-64
2022/04/13 01:53:35;;;;;;;1.77;1.38;;;;;;;20.43;35.26;99107.00;5130931;27;20027;-64
2022/04/13 01:56:01;;;;;;;2.70;1.98;;;;;;;20.46;35.24;99107.63;5132809;27;20122;-65
2022/04/13 01:58:26;;;;;;;2.97;1.95;;;;;;;20.45;35.14;99120.22;5132823;27;20129;-64
2022/04/13 02:00:54;;;;;;;2.13;1.67;;;;;;;20.47;35.09;99120.06;5132787;27;20105;-63
2022/04/13 02:03:25;;;;;;;2.30;1.88;;;;;;;20.45;35.44;99112.16;5132804;27;20399;-63
2022/04/13 02:05:52;;;;;;;2.47;1.65;;;;;;;20.47;35.48;99112.00;5133010;27;20401;-64
2022/04/13 02:08:18;;;;;;;4.00;2.17;;;;;;;20.48;35.17;99113.66;5131005;27;20070;-64
2022/04/13 02:10:44;;;;;;;2.72;1.73;;;;;;;20.50;35.64;99114.28;5132296;27;20038;-65
2022/04/13 02:13:09;;;;;;;3.47;1.75;;;;;;;20.49;35.39;99120.69;5132436;27;20047;-64
2022/04/13 02:15:36;;;;;;;2.95;1.55;;;;;;;20.49;35.45;99115.31;5132907;28;20501;-64
2022/04/13 02:18:02;;;;;;;2.38;1.60;;;;;;;20.49;35.50;99123.38;5132586;27;20042;-64
2022/04/13 02:20:27;;;;;;;2.50;1.67;;;;;;;20.50;35.81;99125.03;5132686;27;20405;-64
2022/04/13 02:22:53;;;;;;;2.70;2.05;;;;;;;20.52;35.91;99131.03;5132207;27;20051;-64
2022/04/13 02:25:18;;;;;;;1.55;1.23;;;;;;;20.52;36.23;99141.78;5130716;28;20114;-65
2022/04/13 02:27:44;;;;;;;2.55;1.92;;;;;;;20.53;36.06;99136.22;5132790;27;20067;-63
2022/04/13 02:30:10;;;;;;;3.60;1.70;;;;;;;20.54;35.79;99135.19;5132862;28;20046;-64
2022/04/13 02:32:40;;;;;;;2.25;1.70;;;;;;;20.55;35.72;99130.63;5132603;27;20119;-65
2022/04/13 02:35:06;;;;;;;2.35;1.60;;;;;;;20.55;35.95;99144.94;5132376;28;20043;-64
2022/04/13 02:37:32;;;;;;;3.42;2.10;;;;;;;20.56;35.97;99135.84;5132465;27;20035;-65
2022/04/13 02:39:57;;;;;;;2.33;1.70;;;;;;;20.57;36.14;99142.03;5131114;27;20111;-64
2022/04/13 02:42:23;;;;;;;2.08;1.45;;;;;;;20.58;36.15;99144.53;5132833;27;20031;-65
2022/04/13 02:44:49;;;;;;;2.67;1.80;;;;;;;20.59;36.25;99139.97;5133507;28;20035;-64
2022/04/13 02:47:14;;;;;;;1.90;1.65;;;;;;;20.60;35.21;99149.72;5133376;27;20405;-65
2022/04/13 02:49:41;;;;;;;1.98;1.58;;;;;;;20.60;35.22;99149.72;5133241;27;20042;-64
2022/04/13 02:52:07;;;;;;;1.60;1.30;;;;;;;20.61;35.42;99153.22;5132884;27;20031;-65
2022/04/13 02:54:32;;;;;;;2.70;1.52;;;;;;;20.62;35.42;99155.72;5132806;27;20053;-65
2022/04/13 02:56:58;;;;;;;2.00;1.48;;;;;;;20.59;35.94;99146.19;5132237;27;20474;-65
2022/04/13 02:59:23;;;;;;;1.83;1.27;;;;;;;20.60;35.88;99147.03;5134302;27;20113;-64
2022/04/13 03:01:49;;;;;;;2.35;1.90;;;;;;;20.61;35.94;99154.06;5136745;27;20027;-65
2022/04/13 03:04:16;;;;;;;1.67;1.40;;;;;;;20.63;35.85;99154.69;5137111;27;20042;-64
2022/04/13 03:06:42;;;;;;;2.33;1.77;;;;;;;20.64;35.72;99156.38;5136478;27;20542;-65
2022/04/13 03:09:07;;;;;;;2.05;1.33;;;;;;;20.64;36.01;99153.69;5136037;27;20034;-65
2022/04/13 03:11:33;;;;;;;2.35;1.52;;;;;;;20.64;35.97;99160.91;5137090;27;20039;-65
2022/04/13 03:13:58;;;;;;;2.28;1.60;;;;;;;20.64;35.60;99177.03;5135865;27;20186;-64
2022/04/13 03:16:24;;;;;;;2.45;1.48;;;;;;;20.65;35.61;99165.25;5134218;27;20125;-64
2022/04/13 03:18:49;;;;;;;1.67;1.30;;;;;;;20.64;35.98;99166.28;5136404;27;20177;-64
2022/04/13 03:21:15;;;;;;;3.90;1.33;;;;;;;20.63;35.92;99170.81;5136763;27;20027;-65
2022/04/13 03:23:40;;;;;;;1.92;1.40;;;;;;;20.64;36.03;99169.81;5135844;27;20473;-65
2022/04/13 03:26:06;;;;;;;1.83;1.50;;;;;;;20.65;36.04;99168.78;5147904;27;20086;-66
2022/04/13 03:28:31;;;;;;;2.03;1.30;;;;;;;20.65;35.79;99173.31;5142782;27;20042;-66
2022/04/13 03:30:57;;;;;;;2.17;1.75;;;;;;;20.67;35.61;99180.13;5134777;27;20031;-64
2022/04/13 03:33:23;;;;;;;1.80;1.40;;;;;;;20.67;35.66;99180.13;5135560;27;20440;-65
2022/04/13 03:35:48;;;;;;;2.28;1.60;;;;;;;20.68;35.83;99179.13;5136603;27;20080;-66
2022/04/13 03:38:14;;;;;;;2.47;2.10;;;;;;;20.72;35.54;99185.78;5135877;27;20042;-64
2022/04/13 03:40:39;;;;;;;3.40;2.10;;;;;;;20.72;35.80;99183.09;5136333;27;20027;-66
2022/04/13 03:43:05;;;;;;;1.80;1.30;;;;;;;20.73;35.80;99189.31;5136352;27;20086;-66
2022/04/13 03:45:31;;;;;;;2.65;2.17;;;;;;;20.70;35.88;99179.75;5136387;27;20443;-66
2022/04/13 03:47:56;;;;;;;2.83;2.15;;;;;;;20.74;35.73;99188.25;5134848;27;20114;-66
2022/04/13 03:50:22;;;;;;;3.58;1.67;;;;;;;20.77;36.08;99190.59;5136435;27;20069;-66
2022/04/13 03:52:47;;;;;;;2.03;1.50;;;;;;;20.79;35.56;99190.41;5135333;27;20072;-66
2022/04/13 03:55:12;;;;;;;2.72;1.92;;;;;;;20.75;35.33;99184.56;5135950;27;20084;-65
2022/04/13 03:57:38;;;;;;;3.65;1.90;;;;;;;20.74;35.23;99183.72;5135428;27;20462;-66
2022/04/13 04:00:06;;;;;;;2.30;1.65;;;;;;;20.77;35.72;99192.47;5136142;27;20130;-65
2022/04/13 04:02:32;;;;;;;2.38;1.58;;;;;;;20.77;35.51;99200.53;5136430;27;20031;-65
2022/04/13 04:05:02;;;;;;;2.38;1.70;;;;;;;20.77;35.29;99187.91;5133248;27;20050;-65
2022/04/13 04:07:27;;;;;;;1.75;1.13;;;;;;;20.78;35.47;99194.94;5135510;27;20034;-65
2022/04/13 04:09:53;;;;;;;3.42;2.10;;;;;;;20.79;34.93;99196.59;5135894;27;20035;-64
2022/04/13 04:12:18;;;;;;;3.35;1.90;;;;;;;20.78;35.30;99205.69;5135145;27;20058;-65
2022/04/13 04:14:44;;;;;;;3.28;1.80;;;;;;;20.78;35.53;99202.19;5135996;27;20401;-66
2022/04/13 04:17:09;;;;;;;3.88;1.45;;;;;;;20.82;35.61;99203.44;5135694;27;20118;-65
2022/04/13 04:19:35;;;;;;;2.88;1.70;;;;;;;20.81;35.42;99204.47;5133436;27;20126;-65
2022/04/13 04:22:00;;;;;;;3.53;1.88;;;;;;;20.80;35.37;99214.41;5135548;27;20035;-65
2022/04/13 04:24:26;;;;;;;2.92;1.95;;;;;;;20.80;35.25;99205.53;5134824;27;20573;-65
2022/04/13 04:26:52;;;;;;;3.03;2.00;;;;;;;20.82;35.22;99198.91;5135055;27;20479;-65
2022/04/13 04:29:17;;;;;;;3.75;2.10;;;;;;;20.83;34.73;99199.72;5135342;27;20030;-64
2022/04/13 04:31:55;;;;;;;3.20;2.35;;;;;;;20.85;35.13;99197.66;5135456;27;20038;-65
2022/04/13 04:34:24;;;;;;;3.28;2.40;;;;;;;20.85;34.75;99203.91;5100562;27;20084;-65
2022/04/13 04:36:50;;;;;;;2.50;1.63;;;;;;;20.86;34.59;99210.94;5114534;28;20114;-66
2022/04/13 04:39:16;;;;;;;2.70;1.92;;;;;;;20.86;34.64;99215.47;5125936;27;20564;-65
2022/04/13 04:41:42;;;;;;;2.85;2.00;;;;;;;20.87;34.72;99217.97;5134723;27;20031;-64
2022/04/13 04:44:09;;;;;;;4.05;2.28;;;;;;;20.87;34.52;99217.97;5134970;27;20037;-64
2022/04/13 04:46:35;;;;;;;2.42;1.70;;;;;;;20.90;34.54;99214.06;5134987;27;20027;-67
2022/04/13 04:49:02;;;;;;;3.03;1.70;;;;;;;20.91;34.51;99210.34;5134341;27;20114;-65
2022/04/13 04:51:28;;;;;;;3.10;2.53;;;;;;;20.90;34.65;99214.06;5132693;27;20035;-64
2022/04/13 04:53:53;;;;;;;2.83;1.90;;;;;;;20.93;34.80;99219.06;5133160;27;20072;-67
2022/04/13 04:56:19;;;;;;;4.47;2.15;;;;;;;20.92;34.52;99224.59;5134889;27;20065;-65
2022/04/13 04:58:44;;;;;;;2.88;1.92;;;;;;;20.92;34.84;99222.78;5135836;27;20129;-65
2022/04/13 05:01:10;;;;;;;3.38;2.10;;;;;;;20.93;34.83;99220.91;5134531;27;20039;-65
2022/04/13 05:03:35;;;;;;;3.83;1.98;;;;;;;20.94;34.49;99222.56;5135075;27;20402;-65
2022/04/13 05:06:01;;;;;;;4.03;2.95;;;;;;;20.92;34.27;99228.16;5132870;27;20030;-66
2022/04/13 05:08:26;;;;;;;4.10;2.63;;;;;;;20.93;34.00;99227.13;5134106;27;20035;-66
2022/04/13 05:10:52;;;;;;;3.45;2.28;;;;;;;20.94;34.12;99234.16;5150831;27;20409;-66
2022/04/13 05:13:18;;;;;;;4.43;2.75;;;;;;;20.91;34.06;99234.56;5144563;27;20050;-66
2022/04/13 05:15:45;;;;;;;2.97;2.28;;;;;;;20.93;34.13;99232.50;5135108;27;20466;-67
2022/04/13 05:18:11;;;;;;;3.35;2.10;;;;;;;20.92;34.62;99235.38;5135035;27;20083;-65
2022/04/13 05:20:37;;;;;;;3.47;2.78;;;;;;;20.92;34.89;99233.53;5132254;27;20044;-65
2022/04/13 05:23:02;;;;;;;3.13;2.40;;;;;;;20.95;34.66;99237.66;5133515;27;20525;-65
2022/04/13 05:25:28;;;;;;;3.50;2.65;;;;;;;20.94;34.42;99236.84;5133689;27;20039;-64
2022/04/13 05:27:53;;;;;;;5.07;2.72;;;;;;;20.97;34.13;99239.13;5133402;27;20042;-65
2022/04/13 05:30:19;;;;;;;3.45;2.47;;;;;;;20.98;34.47;99240.78;5133455;27;20038;-65
2022/04/13 05:32:51;;;;;;;5.22;2.47;;;;;;;20.96;34.27;99234.78;5133489;27;20491;-65
2022/04/13 05:35:17;;;;;;;4.65;2.58;;;;;;;20.98;34.16;99240.78;5133398;27;20491;-65
2022/04/13 05:37:43;;;;;;;3.88;2.80;;;;;;;20.98;33.85;99242.66;5131422;27;20130;-66
2022/04/13 05:40:09;;;;;;;4.88;3.28;;;;;;;20.98;33.82;99242.66;5133424;27;20118;-65
2022/04/13 05:42:34;;;;;;;6.47;3.60;;;;;;;20.96;33.97;99248.22;5134000;27;20031;-66
2022/04/13 05:45:00;;;;;;;4.45;2.90;;;;;;;20.96;34.02;99250.91;5134056;27;20476;-66
2022/04/13 05:47:26;;;;;;;4.88;3.10;;;;;;;20.96;34.10;99252.78;5120230;27;20477;-66
2022/04/13 05:49:51;;;;;;;5.18;3.15;;;;;;;20.96;34.09;99253.59;5113129;28;20039;-67
2022/04/13 05:52:17;;;;;;;9.93;3.42;;;;;;;20.97;34.15;99260.66;5120075;27;20030;-65
2022/04/13 05:54:43;;;;;;;4.97;3.25;;;;;;;20.97;34.00;99270.59;5133597;27;20442;-66
2022/04/13 05:57:08;;;;;;;2.95;2.35;;;;;;;20.98;33.83;99266.88;5133625;27;20034;-65
2022/04/13 05:59:35;;;;;;;4.07;2.60;;;;;;;20.98;34.03;99270.38;5133462;27;20042;-65
2022/04/13 06:02:01;;;;;;;5.07;3.50;;;;;;;20.99;33.83;99266.66;5115929;27;20382;-65
2022/04/13 06:04:26;;;;;;;3.78;3.10;;;;;;;20.99;34.16;99269.34;5133366;27;20035;-66
2022/04/13 06:06:54;;;;;;;4.97;3.15;;;;;;;20.99;33.84;99280.09;5132204;27;20037;-65
2022/04/13 06:09:20;;;;;;;4.90;2.60;;;;;;;21.00;33.74;99271.00;5133214;27;20031;-65
2022/04/13 06:11:45;;;;;;;5.28;3.22;;;;;;;21.01;33.82;99277.25;5133610;27;20027;-66
2022/04/13 06:14:11;;;;;;;6.05;3.40;;;;;;;21.00;33.54;99275.56;5133605;27;20447;-65
2022/04/13 06:16:36;;;;;;;5.10;3.13;;;;;;;21.03;33.81;99284.09;5133654;28;20470;-65
2022/04/13 06:19:02;;;;;;;5.13;2.33;;;;;;;21.07;34.06;99286.38;5132830;27;20027;-66
2022/04/13 06:21:27;;;;;;;6.45;3.58;;;;;;;21.05;33.71;99281.19;5133624;28;20035;-65
2022/04/13 06:23:53;;;;;;;5.75;3.13;;;;;;;21.08;33.48;99290.75;5130947;27;20117;-66
2022/04/13 06:26:18;;;;;;;5.22;2.85;;;;;;;21.08;33.66;99288.88;5133361;28;20383;-65
2022/04/13 06:28:44;;;;;;;4.78;2.95;;;;;;;21.10;33.63;99284.13;5133217;27;20031;-64
2022/04/13 06:31:09;;;;;;;3.33;2.60;;;;;;;21.10;33.79;99286.81;5133686;28;20066;-65
2022/04/13 06:33:35;;;;;;;4.20;2.80;;;;;;;21.12;33.64;99287.47;5133216;27;20039;-64
2022/04/13 06:36:01;;;;;;;3.25;2.47;;;;;;;21.12;34.03;99290.16;5137792;27;20035;-65
2022/04/13 06:38:27;;;;;;;4.53;2.67;;;;;;;21.12;33.77;99295.53;5134354;27;20162;-68
2022/04/13 06:40:52;;;;;;;3.97;2.70;;;;;;;21.12;33.89;99302.75;5137895;27;20088;-66
2022/04/13 06:43:18;;;;;;;3.40;2.53;;;;;;;21.13;33.88;99299.03;5137395;27;20034;-66
2022/04/13 06:45:43;;;;;;;5.57;2.83;;;;;;;21.14;33.82;99308.78;5137009;27;20031;-66
2022/04/13 06:48:09;;;;;;;6.32;3.00;;;;;;;21.14;33.43;99317.69;5136697;27;20035;-65
2022/04/13 06:50:36;;;;;;;5.70;2.70;;;;;;;21.16;33.64;99314.78;5137249;27;20066;-66
2022/04/13 06:53:01;;;;;;;4.03;3.15;;;;;;;21.15;33.31;99313.97;5137457;27;20027;-66
2022/04/13 06:55:27;;;;;;;4.15;2.63;;;;;;;21.18;34.14;99320.81;5135428;27;20542;-66
2022/04/13 06:57:52;;;;;;;3.72;2.63;;;;;;;21.24;34.13;99320.03;5136630;27;20034;-65
2022/04/13 07:00:18;;;;;;;5.57;2.97;;;;;;;21.30;34.03;99324.63;5136942;27;20031;-64
2022/04/13 07:02:43;;;;;;;4.70;2.95;;;;;;;21.34;34.24;99320.53;5135952;27;20505;-65
2022/04/13 07:05:09;;;;;;;5.05;2.25;;;;;;;21.34;34.71;99323.22;5136536;27;20039;-66
2022/04/13 07:07:35;;;;;;;4.63;3.08;;;;;;;21.15;34.70;99330.13;5136500;27;20110;-66
2022/04/13 07:10:03;;;;;;;3.92;3.00;;;;;;;20.89;34.56;99330.72;5133630;27;20442;-65
2022/04/13 07:12:36;;;;;;;4.95;3.50;;;;;;;20.64;34.31;99341.84;5135515;27;20047;-66
2022/04/13 07:15:02;;;;;;;5.55;3.42;;;;;;;20.39;34.84;99338.69;5136646;27;20023;-66
2022/04/13 07:17:27;;;;;;;6.68;2.80;;;;;;;20.20;35.33;99342.81;5137259;27;20034;-67
2022/04/13 07:19:52;;;;;;;5.30;3.60;;;;;;;20.04;35.13;99333.94;5135823;27;20114;-67
2022/04/13 07:22:18;;;;;;;5.72;3.17;;;;;;;19.89;35.03;99333.94;5135817;27;20115;-67
2022/04/13 07:24:44;;;;;;;10.50;3.20;;;;;;;19.88;35.53;99347.56;5134833;27;20030;-65
2022/04/13 07:27:09;;;;;;;6.13;3.00;;;;;;;19.85;35.69;99347.91;5136029;27;20394;-69
2022/04/13 07:29:34;;;;;;;5.85;3.15;;;;;;;19.82;35.49;99347.25;5136126;27;20054;-65
2022/04/13 07:32:00;;;;;;;6.82;3.30;;;;;;;19.78;35.44;99345.13;5134154;27;20103;-66
2022/04/13 07:34:26;;;;;;;4.85;2.67;;;;;;;19.78;35.57;99351.31;5137755;27;20493;-67
2022/04/13 07:36:51;;;;;;;5.65;3.60;;;;;;;19.79;35.36;99353.00;5139162;27;20058;-66
2022/04/13 07:39:16;;;;;;;7.82;3.88;;;;;;;19.77;35.22;99352.38;5136161;27;20128;-67
2022/04/13 07:41:42;;;;;;;7.65;3.53;;;;;;;19.78;34.81;99356.69;5136425;27;20039;-67
2022/04/13 07:44:08;;;;;;;5.50;2.97;;;;;;;19.80;35.30;99356.53;5145728;27;20030;-68
2022/04/13 07:46:33;;;;;;;17.25;4.10;;;;;;;19.82;35.09;99349.13;5156160;27;20042;-67
2022/04/13 07:48:59;;;;;;;8.68;3.25;;;;;;;19.84;34.67;99360.50;5143614;27;20042;-68
2022/04/13 07:51:24;;;;;;;6.88;5.00;;;;;;;19.76;34.78;99353.38;5135698;27;20481;-69
2022/04/13 07:53:50;;;;;;;8.85;4.50;;;;;;;19.65;34.81;99360.03;5121164;27;20031;-68
2022/04/13 07:56:15;;;;;;;6.80;4.43;;;;;;;19.59;34.88;99360.75;5118191;27;20070;-68
2022/04/13 07:58:41;;;;;;;9.75;4.57;;;;;;;19.52;34.86;99359.84;5118316;27;20065;-68
2022/04/13 08:01:06;;;;;;;5.57;4.28;;;;;;;19.44;34.87;99352.72;5136071;27;20110;-67
2022/04/13 08:03:33;;;;;;;6.57;4.15;;;;;;;19.41;34.84;99358.44;5135828;27;20405;-68
2022/04/13 08:05:58;;;;;;;6.70;4.57;;;;;;;19.38;35.15;99361.47;5135516;27;20107;-66
2022/04/13 08:08:24;;;;;;;8.05;4.20;;;;;;;19.35;34.86;99353.78;5135325;27;20038;-67
2022/04/13 08:10:49;;;;;;;10.02;4.72;;;;;;;19.30;35.01;99358.88;5135742;27;20038;-67
2022/04/13 08:13:15;;;;;;;7.38;3.95;;;;;;;19.29;35.00;99357.22;5134897;27;20081;-67
2022/04/13 08:15:40;;;;;;;7.18;5.07;;;;;;;19.28;34.96;99368.97;5135737;27;20031;-67
2022/04/13 08:18:06;;;;;;;10.27;4.85;;;;;;;19.26;35.04;99371.84;5135352;27;20027;-66
2022/04/13 08:20:31;;;;;;;7.47;4.10;;;;;;;19.24;35.00;99375.69;5132374;27;20035;-67
2022/04/13 08:22:57;;;;;;;5.82;3.95;;;;;;;19.20;34.81;99373.38;5114963;28;20028;-67
2022/04/13 08:25:23;;;;;;;6.22;4.50;;;;;;;19.20;34.90;99376.06;5134913;27;20030;-66
2022/04/13 08:27:49;;;;;;;6.07;3.95;;;;;;;19.17;34.76;99375.59;5134392;27;20035;-67
2022/04/13 08:30:14;;;;;;;6.05;4.18;;;;;;;19.15;34.87;99375.78;5134141;27;20031;-67
2022/04/13 08:32:40;;;;;;;6.28;4.53;;;;;;;19.12;35.03;99370.78;5143693;27;20037;-67
2022/04/13 08:35:09;;;;;;;6.97;4.13;;;;;;;19.12;35.03;99372.59;5156035;27;20026;-68
2022/04/13 08:37:35;;;;;;;8.70;4.65;;;;;;;19.11;34.92;99368.28;5135439;27;20038;-67
2022/04/13 08:40:01;;;;;;;7.68;4.28;;;;;;;19.11;34.87;99381.69;5134864;27;20037;-66
2022/04/13 08:42:37;;;;;;;5.35;3.92;;;;;;;19.11;34.95;99374.47;5134587;27;20505;-66
2022/04/13 08:45:15;;;;;;;6.60;4.50;;;;;;;19.10;34.77;99372.81;5134841;27;20039;-67
2022/04/13 08:47:44;;;;;;;5.82;4.05;;;;;;;19.09;34.95;99376.50;5134951;27;20030;-68
2022/04/13 08:50:12;;;;;;;8.25;4.43;;;;;;;19.07;34.91;99378.53;5134796;27;20451;-67
2022/04/13 08:52:38;;;;;;;7.45;4.57;;;;;;;19.07;35.05;99381.19;5130686;27;20039;-66
2022/04/13 08:55:09;;;;;;;7.60;5.22;;;;;;;19.08;34.97;99384.72;5114418;28;20054;-65
2022/04/13 08:57:41;;;;;;;6.68;4.82;;;;;;;19.07;34.86;99378.53;5115139;27;20036;-66
2022/04/13 09:00:12;;;;;;;12.57;4.60;;;;;;;19.05;34.79;99377.84;5133954;27;20045;-66
2022/04/13 09:02:50;;;;;;;12.88;4.28;;;;;;;19.03;35.19;99377.22;5134096;27;20039;-68
2022/04/13 09:05:17;;;;;;;8.50;4.38;;;;;;;19.04;34.99;99381.59;5133280;27;20478;-66
2022/04/13 09:08:17;;;;;;;12.20;4.45;;;;;;;19.02;34.91;99380.94;5133112;27;20038;-67
2022/04/13 09:10:43;;;;;;;11.57;4.63;;;;;;;18.96;34.94;99389.66;5085935;27;20418;-65
2022/04/13 09:13:10;;;;;;;9.48;4.40;;;;;;;18.98;35.34;99388.47;5132773;27;20058;-68
2022/04/13 09:15:41;;;;;;;7.22;3.78;;;;;;;18.98;35.57;99391.16;5133910;27;20138;-68
2022/04/13 09:18:08;;;;;;;11.88;4.43;;;;;;;18.98;35.50;99398.38;5134022;27;20059;-69
2022/04/13 09:20:34;;;;;;;6.35;4.82;;;;;;;18.98;35.25;99395.69;5133149;27;20494;-69
2022/04/13 09:23:01;;;;;;;9.07;4.22;;;;;;;18.99;35.31;99397.38;5132129;27;20022;-68
2022/04/13 09:25:29;;;;;;;6.75;4.30;;;;;;;18.99;35.31;99389.31;5133780;27;20031;-68
2022/04/13 09:27:56;;;;;;;6.50;3.92;;;;;;;18.97;35.35;99394.03;5133473;27;20046;-67
2022/04/13 09:30:22;;;;;;;4.80;3.33;;;;;;;18.99;35.54;99400.03;5133915;27;20117;-66
2022/04/13 09:32:50;;;;;;;6.20;4.07;;;;;;;18.98;35.47;99401.06;5132235;27;20122;-68
2022/04/13 09:35:16;;;;;;;9.52;4.50;;;;;;;18.94;35.51;99402.38;5133403;27;20079;-67
2022/04/13 09:37:43;;;;;;;7.28;4.32;;;;;;;18.92;35.50;99403.41;5098003;27;20043;-68
2022/04/13 09:40:09;;;;;;;6.00;4.15;;;;;;;18.90;35.48;99400.06;5123669;27;20035;-66
2022/04/13 09:42:36;;;;;;;6.38;4.20;;;;;;;18.88;35.28;99398.56;5131344;27;20019;-66
2022/04/13 09:45:02;;;;;;;5.90;4.07;;;;;;;18.88;35.35;99404.78;5133753;27;20044;-65
2022/04/13 09:47:33;;;;;;;5.95;3.58;;;;;;;18.86;35.07;99401.44;5130297;27;20042;-64
2022/04/13 09:50:00;;;;;;;11.05;4.10;;;;;;;18.84;35.29;99402.63;5129834;27;20111;-64
2022/04/13 09:52:33;;;;;;;5.80;4.00;;;;;;;18.83;35.49;99404.47;5129668;27;20050;-64
2022/04/13 09:54:59;;;;;;;4.97;3.60;;;;;;;18.83;35.36;99409.00;5132106;27;20031;-65
2022/04/13 09:57:25;;;;;;;6.47;3.97;;;;;;;18.81;35.43;99405.69;5132690;27;20344;-63
2022/04/13 09:59:59;;;;;;;4.80;3.55;;;;;;;18.79;35.32;99408.53;5133976;27;20030;-64
2022/04/13 10:02:36;;;;;;;7.50;4.50;;;;;;;18.79;35.22;99410.38;5133485;27;20047;-64
2022/04/13 10:05:03;;;;;;;7.53;4.15;;;;;;;18.76;35.32;99412.41;5133979;27;20096;-65
2022/04/13 10:07:29;;;;;;;11.93;4.43;;;;;;;18.75;35.24;99410.72;5134146;27;20425;-63
2022/04/13 10:09:54;;;;;;;7.80;4.30;;;;;;;18.74;35.26;99421.63;5133207;27;20035;-64
2022/04/13 10:12:20;;;;;;;5.95;4.40;;;;;;;18.70;34.96;99406.91;5133404;27;20047;-64
2022/04/13 10:14:46;;;;;;;9.15;4.32;;;;;;;18.66;35.11;99414.47;5133679;28;20099;-64
2022/04/13 10:17:13;;;;;;;8.85;4.35;;;;;;;18.66;35.08;99413.63;5133338;27;20059;-64
2022/04/13 10:19:39;;;;;;;7.38;3.95;;;;;;;18.65;35.10;99417.31;5133191;27;20502;-64
2022/04/13 10:22:05;;;;;;;8.20;3.97;;;;;;;18.64;34.93;99416.50;5132978;27;20031;-64
2022/04/13 10:24:33;;;;;;;6.10;4.00;;;;;;;18.63;35.30;99413.97;5133748;28;20363;-65
2022/04/13 10:27:07;;;;;;;5.93;3.38;;;;;;;18.63;35.14;99414.81;5133876;28;20130;-65
2022/04/13 10:29:34;;;;;;;4.95;3.55;;;;;;;18.65;35.18;99417.31;5133438;27;20063;-65
2022/04/13 10:32:11;;;;;;;8.48;4.57;;;;;;;18.64;35.11;99415.66;5133204;28;20042;-65
2022/04/13 10:34:47;;;;;;;5.63;4.20;;;;;;;18.64;35.06;99411.13;5132881;27;20382;-65
2022/04/13 10:37:14;;;;;;;10.13;4.32;;;;;;;18.62;35.17;99418.50;5132810;27;20042;-64
2022/04/13 10:39:42;;;;;;;6.88;4.55;;;;;;;18.63;35.37;99417.50;5133035;28;20034;-64
2022/04/13 10:42:12;;;;;;;7.22;4.43;;;;;;;18.63;35.22;99422.88;5133293;27;20082;-62
2022/04/13 10:44:53;;;;;;;7.63;4.47;;;;;;;18.61;35.31;99430.25;5132615;27;20039;-66
2022/04/13 10:47:25;;;;;;;7.22;4.05;;;;;;;18.58;35.11;99431.44;5133640;27;20095;-64
2022/04/13 10:49:58;;;;;;;8.55;4.00;;;;;;;18.56;35.30;99433.47;5133042;28;20031;-63
2022/04/13 10:52:40;;;;;;;9.27;4.95;;;;;;;18.55;35.29;99431.78;5114493;27;20035;-63
2022/04/13 10:55:10;;;;;;;;;;;;;;;18.47;35.21;99433.66;5133502;28;20501;-64
2022/04/13 10:57:39;;;;;;;8.32;3.90;;;;;;;18.47;35.36;99429.13;5132992;27;19911;-63
2022/04/13 11:00:07;;;;;;;6.75;4.45;;;;;;;18.50;35.35;99428.78;5133339;28;20034;-64
2022/04/13 11:02:39;;;;;;;9.73;4.90;;;;;;;18.53;35.53;99427.63;5113256;27;20873;-65
2022/04/13 11:05:05;;;;;;;8.25;3.78;;;;;;;18.57;35.81;99437.81;5132676;27;20046;-65
2022/04/13 11:07:31;;;;;;;7.97;4.57;;;;;;;18.71;35.62;99436.22;5132778;27;20060;-65
2022/04/13 11:09:58;;;;;;;7.20;4.57;;;;;;;18.78;34.96;99439.00;5132800;28;20034;-65
2022/04/13 11:12:25;;;;;;;8.32;3.80;;;;;;;18.74;35.25;99435.03;5132581;27;20111;-65
2022/04/13 11:14:53;;;;;;;8.20;4.60;;;;;;;18.70;35.14;99434.53;5151055;27;20026;-65
2022/04/13 11:17:18;;;;;;;7.07;3.53;;;;;;;18.66;35.30;99441.28;5154311;27;20031;-64
2022/04/13 11:19:44;;;;;;;8.32;4.53;;;;;;;18.62;35.43;99439.94;5137592;27;20061;-64
2022/04/13 11:22:11;;;;;;;5.32;3.30;;;;;;;18.60;35.37;99445.47;5136257;27;20394;-65
2022/04/13 11:24:46;;;;;;;5.22;3.78;;;;;;;18.63;35.44;99446.13;5136122;27;20023;-65
2022/04/13 11:27:12;;;;;;;10.27;4.47;;;;;;;18.63;35.31;99449.66;5136095;27;20447;-65
2022/04/13 11:29:40;;;;;;;8.15;4.95;;;;;;;18.62;35.32;99448.00;5135914;27;20070;-61
2022/04/13 11:32:06;;;;;;;5.90;4.30;;;;;;;18.59;35.26;99451.03;5136551;27;20035;-66